Weather observations for the past three days for
Payson Airport
Imperial (Metric)
Date Time (mst) Wind (mph) Vis. (mi.) Weather Sky Cond. Temperature (ºF) Relative Humidity Wind Chill (°F) Heat Index (°F) Pressure Precipitation (in)
Air Dwpt 6 hour altimeter (in) sea level (mb) 1 hr 3 hr 6 hr
Max. Min.
05 20:55 NW 6 10.00 Fair CLR 73.4 51.8 47% 30.19 0.0
05 20:35 W 6 10.00 Fair CLR 73.4 51.8 47% 30.18 0.0
05 20:15 W 7 10.00 Fair CLR 75.2 51.8 44% 78 30.17 0.0
05 19:55 W 6 10.00 Fair CLR 75.2 51.8 44% 78 30.17 0.0
05 19:35 W 6 10.00 Fair CLR 77 51.8 42% 78 30.16 0.0
05 19:15 W 6 10.00 Fair CLR 77 51.8 42% 78 30.16 0.0
05 18:55 W 7 10.00 Fair CLR 77 51.8 42% 78 30.16 0.0
05 18:35 W 6 10.00 Fair CLR 78.8 53.6 42% 79 30.16 0.0
05 18:15 W 8 10.00 Fair CLR 80.6 53.6 39% 80 30.16 0.0
05 17:55 W 9 G 16 10.00 Fair CLR 80.6 51.8 37% 80 30.16 0.0
05 17:35 W 8 10.00 Fair CLR 82.4 51.8 35% 81 30.16 0.0
05 17:15 SW 8 G 16 10.00 Fair CLR 82.4 51.8 35% 81 30.15 0.0
05 16:15 W 9 10.00 Fair CLR 84.2 50 31% 82 30.15 0.0
05 15:55 SW 13 10.00 A Few Clouds FEW075 86 50 29% 84 30.15 0.0
05 15:35 Vrbl 6 G 20 10.00 Partly Cloudy SCT075 SCT085 84.2 50 31% 82 30.15 0.0
05 15:15 W 10 G 16 10.00 Partly Cloudy SCT075 SCT085 86 50 29% 84 30.16 0.0
05 14:55 Vrbl 5 10.00 Fair CLR 84.2 51.8 33% 82 30.17 0.0
05 14:35 W 8 10.00 A Few Clouds FEW100 84.2 50 31% 82 30.18 0.0
05 14:15 W 7 G 16 10.00 A Few Clouds FEW100 84.2 51.8 33% 82 30.18 0.0
05 13:55 Vrbl 7 G 16 10.00 Partly Cloudy SCT090 86 51.8 31% 84 30.19 0.0
05 13:35 SW 10 10.00 Mostly Cloudy BKN090 86 51.8 31% 84 30.19 0.0
05 13:15 Vrbl 6 10.00 Mostly Cloudy BKN090 82.4 50 32% 81 30.2 0.0
05 12:55 Vrbl 7 10.00 Overcast FEW070 OVC090 80.6 50 34% 80 30.21 0.0
05 10:55 SW 7 10.00 Fair CLR 80.6 50 34% 80 30.24 0.0
05 10:35 Vrbl 5 10.00 Fair CLR 80.6 51.8 37% 80 30.24 0.0
05 10:15 Vrbl 3 10.00 Fair CLR 80.6 51.8 37% 80 30.24 0.0
05 09:55 Vrbl 2 10.00 Fair CLR 78.8 50 37% 79 30.24 0.0
05 09:35 Vrbl 3 10.00 Fair CLR 77 50 39% 78 30.23 0.0
05 09:15 Vrbl 6 10.00 Fair CLR 78.8 51.8 39% 79 30.23 0.0
05 08:55 Vrbl 5 10.00 Fair CLR 77 53.6 44% 78 30.24 0.0
05 08:35 Vrbl 2 10.00 Fair CLR 75.2 51.8 44% 78 30.24 0.0
05 08:15 Vrbl 1 10.00 Fair CLR 73.4 53.6 50% 30.24 0.0
05 07:55 NE 3 10.00 Fair CLR 73.4 53.6 50% 30.23 0.0
05 07:35 N 1 10.00 Fair CLR 68 53.6 60% 30.23 0.0
05 07:15 N 2 10.00 Fair CLR 66.2 53.6 64% 30.22 0.0
05 06:55 E 3 10.00 Fair CLR 66.2 51.8 60% 30.21 0.0
05 06:35 NE 2 10.00 Fair CLR 60.8 51.8 72% 30.21 0.0
05 06:15 Vrbl 2 10.00 Fair CLR 60.8 51.8 72% 30.2 0.0
05 05:55 N 3 10.00 Fair CLR 60.8 51.8 72% 30.19 0.0
05 04:35 Vrbl 1 10.00 Fair CLR 62.6 51.8 68% 30.18 0.0
05 04:15 Calm 10.00 A Few Clouds FEW047 62.6 51.8 68% 30.18 0.0
05 03:55 N 1 10.00 Partly Cloudy SCT047 62.6 51.8 68% 30.18 0.0
05 03:35 N 1 10.00 Mostly Cloudy BKN049 BKN065 62.6 51.8 68% 30.18 0.0
05 03:15 N 1 10.00 Partly Cloudy FEW049 SCT065 62.6 51.8 68% 30.18 0.0
05 02:55 N 2 10.00 Partly Cloudy SCT050 64.4 51.8 64% 30.18 0.0
05 02:35 N 2 10.00 Partly Cloudy SCT050 64.4 51.8 64% 30.18 0.0
05 02:15 N 1 10.00 Fair CLR 64.4 51.8 64% 30.18 0.0
05 01:55 Vrbl 1 10.00 Fair CLR 64.4 51.8 64% 30.18 0.0
05 01:35 N 3 10.00 Partly Cloudy SCT065 64.4 51.8 64% 30.18 0.0
05 01:15 Vrbl 2 10.00 Mostly Cloudy BKN065 66.2 51.8 60% 30.19 0.0
05 00:55 NW 3 10.00 Fair CLR 66.2 51.8 60% 30.19 0.0
05 00:35 Vrbl 1 10.00 Fair CLR 66.2 51.8 60% 30.19 0.0
05 00:15 Vrbl 2 10.00 Fair CLR 66.2 51.8 60% 30.19 0.0
04 23:55 Vrbl 2 10.00 Fair CLR 66.2 51.8 60% 30.19 0.0
04 23:35 Vrbl 1 10.00 A Few Clouds FEW065 FEW070 68 51.8 56% 30.19 0.0
04 23:15 Vrbl 2 10.00 Partly Cloudy SCT065 68 51.8 56% 30.18 0.0
04 22:55 Calm 10.00 Mostly Cloudy BKN065 69.8 53.6 57% 30.18 0.0
04 22:35 Vrbl 1 10.00 A Few Clouds FEW065 69.8 53.6 57% 30.18 0.0
04 22:15 Vrbl 1 10.00 A Few Clouds FEW065 69.8 53.6 57% 30.18 0.0
04 21:55 Vrbl 1 10.00 A Few Clouds FEW065 71.6 53.6 53% 30.18 0.0
04 21:35 SE 5 10.00 A Few Clouds FEW065 71.6 51.8 50% 30.18 0.0
04 21:15 S 5 10.00 Fair CLR 71.6 51.8 50% 30.18 0.0
04 20:55 S 3 10.00 Fair CLR 71.6 51.8 50% 30.18 0.0
04 20:35 S 3 10.00 Fair CLR 73.4 51.8 47% 30.17 0.0
04 20:15 S 2 10.00 Fair CLR 73.4 51.8 47% 30.17 0.0
04 19:55 Vrbl 2 10.00 Fair CLR 73.4 51.8 47% 30.16 0.0
04 19:35 Vrbl 2 10.00 Fair CLR 75.2 50 41% 78 30.15 0.0
04 19:15 SW 2 10.00 Fair CLR 75.2 50 41% 78 30.14 0.0
04 18:55 W 7 10.00 Fair CLR 77 48.2 36% 78 30.14 0.0
04 18:35 SW 7 10.00 Fair CLR 78.8 48.2 34% 79 30.14 0.0
04 18:15 SW 9 10.00 Fair CLR 78.8 48.2 34% 79 30.13 0.0
04 17:55 SW 9 10.00 A Few Clouds FEW070 80.6 48.2 32% 80 30.13 0.0
04 17:35 W 10 G 16 10.00 Mostly Cloudy BKN070 80.6 48.2 32% 80 30.14 0.0
04 17:15 SW 13 G 17 10.00 Mostly Cloudy BKN070 BKN080 82.4 48.2 30% 81 30.14 0.0
04 16:55 SW 12 G 17 10.00 Partly Cloudy SCT075 80.6 48.2 32% 80 30.14 0.0
04 16:35 SW 12 G 16 10.00 Mostly Cloudy BKN075 BKN090 82.4 50 32% 81 30.14 0.0
04 16:15 SW 8 G 20 10.00 Partly Cloudy SCT075 SCT090 82.4 50 32% 81 30.14 0.0
04 15:55 W 9 G 18 10.00 Mostly Cloudy SCT075 BKN090 84.2 48.2 29% 82 30.14 0.0
04 15:35 SW 10 G 17 10.00 A Few Clouds FEW075 FEW090 84.2 46.4 27% 82 30.14 0.0
04 15:15 SW 10 G 16 10.00 A Few Clouds FEW075 82.4 44.6 26% 81 30.15 0.0
04 14:55 SW 9 G 20 10.00 Partly Cloudy SCT075 SCT090 82.4 46.4 28% 81 30.15 0.0
04 14:35 SW 9 G 17 10.00 Partly Cloudy SCT075 SCT090 82.4 46.4 28% 81 30.16 0.0
04 14:15 SW 8 10.00 Partly Cloudy SCT065 84.2 48.2 29% 82 30.16 0.0
04 13:55 Vrbl 7 G 16 10.00 Partly Cloudy SCT065 82.4 50 32% 81 30.17 0.0
04 13:35 Vrbl 5 G 17 10.00 Partly Cloudy SCT065 SCT075 80.6 53.6 39% 80 30.17 0.0
04 13:15 S 10 G 20 10.00 Fair CLR 82.4 53.6 37% 81 30.18 0.0
04 12:55 Vrbl 6 10.00 Fair CLR 80.6 51.8 37% 80 30.18 0.0
04 12:35 S 6 10.00 A Few Clouds FEW060 78.8 55.4 45% 79 30.19 0.0
04 12:15 SW 13 G 18 10.00 A Few Clouds FEW060 80.6 53.6 39% 80 30.19 0.0
04 11:55 SW 8 10.00 Fair CLR 78.8 55.4 45% 79 30.2 0.0
04 11:35 S 9 G 16 10.00 Fair CLR 78.8 55.4 45% 79 30.21 0.0
04 11:15 SW 12 G 20 10.00 A Few Clouds FEW041 FEW050 78.8 57.2 48% 80 30.21 0.0
04 10:55 Vrbl 6 10.00 Partly Cloudy SCT039 SCT047 75.2 57.2 54% 78 30.22 0.0
04 10:35 Vrbl 6 10.00 Mostly Cloudy SCT037 BKN045 BKN050 77 57.2 51% 79 30.22 0.0
04 10:15 SW 5 10.00 A Few Clouds FEW044 FEW050 FEW065 75.2 55.4 50% 78 30.22 0.0
04 09:35 S 9 10.00 Mostly Cloudy SCT027 BKN033 BKN044 75.2 59 57% 78 30.21 0.0
04 09:15 Vrbl 6 10.00 Mostly Cloudy SCT029 BKN035 73.4 60.8 65% 30.21 0.0
04 08:15 SW 9 10.00 A Few Clouds FEW019 71.6 62.6 73% 30.2 0.0
04 07:55 S 6 10.00 A Few Clouds FEW019 69.8 62.6 78% 30.19 0.0
04 07:35 Vrbl 1 10.00 Fair CLR 68 62.6 83% 30.2 0.0
04 07:15 Vrbl 3 10.00 Fair CLR 68 62.6 83% 30.19 0.0
04 06:55 Vrbl 2 10.00 Fair CLR 66.2 62.6 88% 30.18 0.0
04 06:35 Vrbl 3 10.00 Partly Cloudy SCT070 66.2 60.8 83% 30.17 0.0
04 06:15 S 3 10.00 Fair CLR 64.4 60.8 88% 30.16 0.0
04 05:55 S 2 10.00 Partly Cloudy SCT065 64.4 60.8 88% 30.16 0.0
04 05:35 Vrbl 2 10.00 Mostly Cloudy BKN065 64.4 60.8 88% 30.15 0.0
04 05:15 S 2 10.00 A Few Clouds FEW065 66.2 60.8 83% 30.15 0.0
04 04:55 S 3 10.00 Fair CLR 66.2 60.8 83% 30.15 0.0
04 04:35 S 3 10.00 A Few Clouds FEW065 66.2 60.8 83% 30.15 0.0
04 04:15 S 2 10.00 Fair CLR 66.2 60.8 83% 30.14 0.0
04 03:55 S 2 10.00 A Few Clouds FEW042 66.2 60.8 83% 30.14 0.0
04 03:35 S 2 10.00 Mostly Cloudy SCT028 BKN035 BKN042 68 62.6 83% 30.14 0.0
04 03:15 Vrbl 2 10.00 Overcast SCT028 BKN037 OVC048 68 62.6 83% 30.14 0.0
04 02:55 S 3 10.00 Overcast BKN028 BKN035 OVC047 68 62.6 83% 30.13 0.0
04 02:35 Vrbl 1 10.00 Overcast SCT029 BKN036 OVC050 68 62.6 83% 30.13 0.0
04 02:15 Vrbl 3 10.00 Overcast BKN036 BKN042 OVC047 68 62.6 83% 30.13 0.0
04 01:55 Vrbl 2 10.00 Mostly Cloudy BKN038 BKN043 BKN050 68 60.8 78% 30.13 0.0
04 01:35 Vrbl 3 10.00 Mostly Cloudy SCT038 BKN044 BKN050 66.2 62.6 88% 30.13 0.0
04 01:15 Vrbl 3 10.00 Mostly Cloudy SCT038 BKN044 BKN050 66.2 64.4 94% 30.13 0.0
04 00:55 NE 2 10.00 Mostly Cloudy SCT040 SCT055 BKN095 66.2 64.4 94% 30.13 0.0
04 00:15 S 5 10.00 Overcast BKN048 OVC060 66.2 62.6 88% 30.13 0.0
03 23:55 Vrbl 6 2.00 Rain Haze SCT004 BKN046 OVC060 66.2 60.8 83% 30.13 0.0 0.07
03 23:35 W 6 G 20 2.00 Light Rain Haze SCT004 BKN055 OVC070 66.2 60.8 83% 30.14 0.0
03 23:15 S 5 10.00 A Few Clouds FEW100 71.6 53.6 53% 30.12 0.0
03 22:55 S 3 10.00 A Few Clouds FEW055 FEW070 71.6 53.6 53% 30.12 0.0
03 22:35 S 5 10.00 Partly Cloudy SCT050 SCT065 SCT100 71.6 53.6 53% 30.12 0.0
03 22:15 S 3 10.00 Overcast BKN050 BKN075 OVC100 73.4 53.6 50% 30.12 0.0
03 21:55 S 3 10.00 Overcast BKN060 OVC075 73.4 53.6 50% 30.13 0.0
03 21:35 S 2 10.00 Mostly Cloudy BKN060 73.4 53.6 50% 30.13 0.0
03 21:15 Vrbl 2 10.00 Mostly Cloudy BKN060 73.4 53.6 50% 30.13 0.0
03 20:55 Vrbl 5 10.00 Partly Cloudy SCT060 73.4 51.8 47% 30.13 0.0
03 20:35 Vrbl 3 10.00 Fair CLR 73.4 51.8 47% 30.12 0.0
03 20:15 S 3 10.00 Fair CLR 73.4 51.8 47% 30.12 0.0
03 19:55 Vrbl 3 10.00 Fair CLR 73.4 51.8 47% 30.11 0.0
03 19:35 SW 3 10.00 Fair CLR 73.4 50 44% 30.11 0.0
03 19:15 SW 2 10.00 Fair CLR 75.2 50 41% 78 30.1 0.0
03 18:55 SW 6 10.00 Fair CLR 77 50 39% 78 30.1 0.0
03 18:35 SW 5 10.00 Fair CLR 77 50 39% 78 30.1 0.0
03 18:15 SW 8 10.00 Fair CLR 78.8 48.2 34% 79 30.1 0.0
03 17:55 SW 6 10.00 Fair CLR 78.8 48.2 34% 79 30.1 0.0
03 17:35 SW 10 10.00 Fair CLR 80.6 50 34% 80 30.11 0.0
03 17:15 SW 10 G 16 10.00 A Few Clouds FEW070 80.6 48.2 32% 80 30.1 0.0
03 16:55 SW 9 10.00 Partly Cloudy SCT070 82.4 48.2 30% 81 30.1 0.0
03 16:35 SW 10 G 20 10.00 Partly Cloudy SCT070 82.4 50 32% 81 30.1 0.0
03 16:15 SW 12 G 16 10.00 Partly Cloudy SCT070 SCT080 SCT090 82.4 50 32% 81 30.1 0.0
03 15:55 SW 10 G 21 10.00 Mostly Cloudy SCT070 BKN080 82.4 50 32% 81 30.11 0.0
03 15:35 Vrbl 6 G 16 10.00 Mostly Cloudy SCT070 BKN080 82.4 50 32% 81 30.11 0.0
03 15:15 SW 9 G 20 10.00 Partly Cloudy SCT070 SCT080 82.4 50 32% 81 30.12 0.0
03 14:55 SW 12 10.00 Mostly Cloudy BKN070 BKN080 80.6 48.2 32% 80 30.12 0.0
03 14:35 SW 9 G 17 10.00 Partly Cloudy SCT070 82.4 50 32% 81 30.13 0.0
03 14:15 SW 9 G 20 10.00 Partly Cloudy SCT060 SCT070 SCT080 82.4 50 32% 81 30.14 0.0
03 13:55 Vrbl 7 10.00 Mostly Cloudy SCT060 BKN070 BKN080 78.8 55.4 45% 79 30.14 0.0
03 13:35 SW 8 G 20 10.00 Mostly Cloudy BKN050 BKN070 80.6 53.6 39% 80 30.14 0.0
03 13:15 Vrbl 6 10.00 Mostly Cloudy SCT050 BKN065 80.6 55.4 42% 81 30.15 0.0
03 12:55 W 6 10.00 Mostly Cloudy SCT050 BKN065 BKN075 78.8 53.6 42% 79 30.16 0.0
03 12:35 Vrbl 6 10.00 Mostly Cloudy SCT050 BKN065 BKN075 77 55.4 47% 79 30.16 0.0
03 12:15 SW 8 10.00 A Few Clouds FEW050 FEW055 FEW070 78.8 53.6 42% 79 30.17 0.0
03 11:55 W 8 10.00 Partly Cloudy SCT055 SCT075 80.6 55.4 42% 81 30.18 0.0
03 11:35 W 8 G 18 10.00 A Few Clouds FEW055 78.8 53.6 42% 79 30.18 0.0
03 11:15 Vrbl 6 G 16 10.00 Fair CLR 78.8 53.6 42% 79 30.19 0.0
03 10:55 S 9 10.00 Fair CLR 78.8 53.6 42% 79 30.2 0.0
03 10:35 S 8 G 16 10.00 Fair CLR 77 53.6 44% 78 30.2 0.0
03 10:15 S 10 10.00 Fair CLR 77 55.4 47% 79 30.2 0.0
03 09:55 SW 8 10.00 Fair CLR 77 53.6 44% 78 30.2 0.0
03 09:35 Vrbl 2 10.00 Fair CLR 75.2 50 41% 78 30.2 0.0
03 09:15 Vrbl 6 10.00 Fair CLR 75.2 48.2 39% 77 30.2 0.0
03 08:55 Calm 10.00 Fair CLR 73.4 44.6 36% 30.2 0.0
03 08:35 Vrbl 3 10.00 A Few Clouds FEW039 73.4 46.4 38% 30.2 0.0
03 08:15 Vrbl 1 10.00 Mostly Cloudy BKN039 73.4 48.2 41% 30.2 0.0
03 07:55 Calm 10.00 Mostly Cloudy BKN041 BKN070 73.4 48.2 41% 30.2 0.0
03 07:35 N 2 10.00 Overcast OVC041 69.8 50 50% 30.2 0.0
03 07:15 N 3 10.00 Mostly Cloudy BKN041 68 51.8 56% 30.19 0.0
03 06:35 S 3 10.00 Fair CLR 66.2 48.2 52% 30.18 0.0
03 06:15 S 3 10.00 A Few Clouds FEW039 66.2 48.2 52% 30.18 0.0
03 05:55 SE 5 10.00 Mostly Cloudy BKN039 66.2 46.4 49% 30.17 0.0
03 05:35 Vrbl 2 10.00 Partly Cloudy SCT039 64.4 48.2 56% 30.17 0.0
03 05:15 Vrbl 1 10.00 A Few Clouds FEW041 66.2 50 56% 30.17 0.0
03 04:55 Vrbl 3 10.00 Mostly Cloudy BKN041 68 44.6 43% 30.17 0.0
03 04:35 E 3 10.00 Partly Cloudy SCT039 66.2 46.4 49% 30.16 0.0
03 04:15 E 5 10.00 Fair CLR 66.2 50 56% 30.16 0.0
03 03:55 Vrbl 3 10.00 Fair CLR 64.4 48.2 56% 30.16 0.0
03 03:35 NW 1 10.00 Fair CLR 66.2 50 56% 30.16 0.0
03 03:15 NW 6 10.00 Fair CLR 64.4 51.8 64% 30.16 0.0
03 02:55 NW 3 10.00 A Few Clouds FEW050 64.4 53.6 68% 30.17 0.0
03 02:35 N 1 10.00 Partly Cloudy SCT050 64.4 51.8 64% 30.17 0.0
03 02:15 Calm 10.00 Fair CLR 64.4 53.6 68% 30.17 0.0
03 01:55 Vrbl 3 10.00 Partly Cloudy SCT050 SCT080 66.2 50 56% 30.17 0.0
03 01:35 Vrbl 1 10.00 Mostly Cloudy SCT050 BKN065 BKN080 66.2 53.6 64% 30.17 0.0
03 01:15 NW 3 10.00 Partly Cloudy SCT060 SCT070 66.2 53.6 64% 30.18 0.0
03 00:55 NW 3 10.00 Partly Cloudy SCT060 SCT070 66.2 53.6 64% 30.18 0.0
03 00:15 SW 2 10.00 Fair CLR 69.8 50 50% 30.18 0.0
02 23:55 SW 2 10.00 Fair CLR 69.8 50 50% 30.18 0.0
02 23:35 Vrbl 3 10.00 Fair CLR 71.6 51.8 50% 30.18 0.0
02 23:15 S 3 10.00 A Few Clouds FEW046 71.6 51.8 50% 30.18 0.0
02 22:55 S 2 10.00 Partly Cloudy SCT048 71.6 51.8 50% 30.18 0.0
02 22:35 SW 2 10.00 Partly Cloudy FEW050 SCT100 71.6 53.6 53% 30.19 0.0
02 22:15 Vrbl 3 10.00 Partly Cloudy SCT100 71.6 53.6 53% 30.19 0.0
02 21:55 S 3 10.00 Mostly Cloudy BKN100 71.6 53.6 53% 30.19 0.0
02 21:35 Vrbl 3 10.00 Partly Cloudy SCT100 71.6 53.6 53% 30.19 0.0
02 21:15 Vrbl 1 10.00 Mostly Cloudy BKN100 71.6 53.6 53% 30.19 0.0
Date Time (mst) Wind (mph) Vis. (mi.) Weather Sky Cond. Air Dwpt Max. Min. Relative Humidity Wind Chill (°F) Heat Index (°F) altimeter (in) sea level (mb) 1 hr 3 hr 6 hr
6 hour
Temperature (ºF) Pressure Precipitation (in)